FFT1682 KMYR-KISP
Flight info
| Callsign | FFT1682 |
|---|---|
| Flight time | 1h 40m |
| Altitude | 37000 |
| Route | ELLDE SAWED Q97 KALDA SARDI1 |
| Aircraft | A320/M-SDE3FGHIRWY/LB1 |
Departure
| Time | 2026-04-22 21:46 |
|---|---|
| Airport | Myrtle Beach International Airport (KMYR) |
Arrival
| Time | 2026-04-22 23:27 |
|---|---|
| Airport | Long Island MacArthur Airport (KISP) |
| Time | Latitude | Longitude | Altitude | Speed | Heading |
|---|---|---|---|---|---|
| 2026-04-22 21:32 | 33.68333 | -78.92437 | 32 ft | 0 kts | 123° |
| 2026-04-22 21:37 | 33.68343 | -78.92454 | 30 ft | 3 kts | 123° |
| 2026-04-22 21:38 | 33.68353 | -78.92473 | 31 ft | 3 kts | 123° |
| 2026-04-22 21:38 | 33.68363 | -78.92492 | 31 ft | 3 kts | 123° |
| 2026-04-22 21:38 | 33.68373 | -78.92511 | 31 ft | 3 kts | 123° |
| 2026-04-22 21:38 | 33.68384 | -78.92530 | 31 ft | 3 kts | 111° |
| 2026-04-22 21:39 | 33.68388 | -78.92553 | 29 ft | 3 kts | 81° |
| 2026-04-22 21:39 | 33.68385 | -78.92568 | 29 ft | 3 kts | 61° |
| 2026-04-22 21:39 | 33.68384 | -78.92570 | 29 ft | 3 kts | 59° |
| 2026-04-22 21:39 | 33.68378 | -78.92581 | 31 ft | 3 kts | 41° |
| 2026-04-22 21:40 | 33.68365 | -78.92592 | 30 ft | 0 kts | 20° |
| 2026-04-22 21:41 | 33.68374 | -78.92589 | 30 ft | 6 kts | 12° |
| 2026-04-22 21:42 | 33.68449 | -78.92601 | 32 ft | 12 kts | 349° |
| 2026-04-22 21:42 | 33.68528 | -78.92620 | 32 ft | 11 kts | 349° |
| 2026-04-22 21:42 | 33.68603 | -78.92639 | 32 ft | 12 kts | 347° |
| 2026-04-22 21:42 | 33.68654 | -78.92679 | 32 ft | 8 kts | 292° |
| 2026-04-22 21:43 | 33.68652 | -78.92741 | 32 ft | 7 kts | 262° |
| 2026-04-22 21:43 | 33.68674 | -78.92790 | 32 ft | 9 kts | 320° |
| 2026-04-22 21:43 | 33.68762 | -78.92822 | 32 ft | 15 kts | 348° |
| 2026-04-22 21:43 | 33.68857 | -78.92845 | 32 ft | 14 kts | 348° |
| 2026-04-22 21:44 | 33.68974 | -78.92852 | 32 ft | 18 kts | 12° |
| 2026-04-22 21:44 | 33.69093 | -78.92863 | 32 ft | 18 kts | 348° |
| 2026-04-22 21:44 | 33.69223 | -78.92895 | 32 ft | 14 kts | 348° |
| 2026-04-22 21:44 | 33.69265 | -78.92976 | 32 ft | 12 kts | 262° |
| 2026-04-22 21:45 | 33.69257 | -78.93027 | 32 ft | 0 kts | 258° |
| 2026-04-22 21:45 | 33.69250 | -78.93066 | 32 ft | 8 kts | 258° |
| 2026-04-22 21:45 | 33.69234 | -78.93123 | 33 ft | 8 kts | 232° |
| 2026-04-22 21:46 | 33.69144 | -78.93125 | 34 ft | 20 kts | 168° |
| 2026-04-22 21:46 | 33.68797 | -78.93039 | 33 ft | 95 kts | 168° |
| 2026-04-22 21:46 | 33.67890 | -78.92811 | 69 ft | 163 kts | 169° |
| 2026-04-22 21:46 | 33.66771 | -78.92535 | 975 ft | 163 kts | 172° |
| 2026-04-22 21:47 | 33.65660 | -78.92263 | 2021 ft | 166 kts | 171° |
| 2026-04-22 21:47 | 33.64479 | -78.91979 | 2364 ft | 184 kts | 168° |
| 2026-04-22 21:47 | 33.63349 | -78.91081 | 2504 ft | 213 kts | 130° |
| 2026-04-22 21:47 | 33.62941 | -78.89306 | 2641 ft | 237 kts | 86° |
| 2026-04-22 21:48 | 33.63624 | -78.87455 | 2790 ft | 261 kts | 45° |
| 2026-04-22 21:48 | 33.65215 | -78.86341 | 3301 ft | 271 kts | 13° |
| 2026-04-22 21:48 | 33.67094 | -78.85917 | 4136 ft | 272 kts | 2° |
| 2026-04-22 21:48 | 33.68954 | -78.85725 | 5030 ft | 272 kts | 0° |
| 2026-04-22 21:49 | 33.70844 | -78.85541 | 5925 ft | 273 kts | 2° |
| 2026-04-22 21:49 | 33.72736 | -78.85292 | 6884 ft | 273 kts | 4° |
| 2026-04-22 21:49 | 33.74415 | -78.85011 | 7630 ft | 276 kts | 5° |
| 2026-04-22 22:03 | 33.75381 | -78.84850 | 7778 ft | 287 kts | 4° |
| 2026-04-22 22:03 | 33.77368 | -78.84474 | 8598 ft | 286 kts | 5° |
| 2026-04-22 22:04 | 33.79322 | -78.84048 | 9509 ft | 286 kts | 7° |
| 2026-04-22 22:04 | 33.81293 | -78.83587 | 10280 ft | 290 kts | 7° |
| 2026-04-22 22:04 | 33.83335 | -78.83100 | 10617 ft | 311 kts | 7° |
| 2026-04-22 22:04 | 33.85506 | -78.82585 | 10809 ft | 334 kts | 8° |
| 2026-04-22 22:05 | 33.87863 | -78.82029 | 11005 ft | 354 kts | 8° |
| 2026-04-22 22:05 | 33.90312 | -78.81448 | 11558 ft | 361 kts | 8° |
| 2026-04-22 22:05 | 33.92793 | -78.80861 | 12267 ft | 364 kts | 8° |
| 2026-04-22 22:05 | 33.95292 | -78.80273 | 12997 ft | 367 kts | 8° |
| 2026-04-22 22:06 | 33.97818 | -78.79683 | 13737 ft | 370 kts | 8° |
| 2026-04-22 22:06 | 34.00354 | -78.79093 | 14403 ft | 373 kts | 8° |
| 2026-04-22 22:06 | 34.02914 | -78.78498 | 15020 ft | 376 kts | 8° |
| 2026-04-22 22:06 | 34.05493 | -78.77899 | 15630 ft | 379 kts | 8° |
| 2026-04-22 22:07 | 34.08094 | -78.77293 | 16218 ft | 382 kts | 8° |
| 2026-04-22 22:07 | 34.10717 | -78.76681 | 16811 ft | 386 kts | 8° |
| 2026-04-22 22:07 | 34.13363 | -78.76064 | 17380 ft | 389 kts | 8° |
| 2026-04-22 22:07 | 34.16005 | -78.75445 | 17937 ft | 393 kts | 8° |
| 2026-04-22 22:08 | 34.18703 | -78.74814 | 18481 ft | 396 kts | 8° |
| 2026-04-22 22:08 | 34.21420 | -78.74180 | 18958 ft | 399 kts | 8° |
| 2026-04-22 22:08 | 34.24159 | -78.73543 | 19451 ft | 402 kts | 8° |
| 2026-04-22 22:08 | 34.26913 | -78.72902 | 19938 ft | 404 kts | 8° |
| 2026-04-22 22:09 | 34.29682 | -78.72258 | 20419 ft | 407 kts | 8° |
| 2026-04-22 22:09 | 34.31534 | -78.71827 | 20738 ft | 409 kts | 8° |
| 2026-04-22 22:09 | 34.35288 | -78.70952 | 21367 ft | 413 kts | 8° |
| 2026-04-22 22:09 | 34.37165 | -78.70508 | 21687 ft | 415 kts | 9° |
| 2026-04-22 22:10 | 34.39948 | -78.69478 | 22152 ft | 421 kts | 19° |
| 2026-04-22 22:10 | 34.42571 | -78.67847 | 22618 ft | 427 kts | 30° |
| 2026-04-22 22:10 | 34.45019 | -78.65767 | 23052 ft | 432 kts | 33° |
| 2026-04-22 22:10 | 34.47474 | -78.63638 | 23508 ft | 434 kts | 32° |
| 2026-04-22 22:11 | 34.49944 | -78.61499 | 23902 ft | 437 kts | 32° |
| 2026-04-22 22:11 | 34.52432 | -78.59344 | 24291 ft | 439 kts | 32° |
| 2026-04-22 22:11 | 34.54896 | -78.57208 | 24676 ft | 441 kts | 32° |
| 2026-04-22 22:11 | 34.57404 | -78.55033 | 25055 ft | 443 kts | 32° |
| 2026-04-22 22:12 | 34.59921 | -78.52849 | 25438 ft | 445 kts | 32° |
| 2026-04-22 22:12 | 34.62443 | -78.50659 | 25819 ft | 447 kts | 32° |
| 2026-04-22 22:12 | 34.64981 | -78.48454 | 26195 ft | 449 kts | 32° |
| 2026-04-22 22:12 | 34.67526 | -78.46240 | 26562 ft | 451 kts | 32° |
| 2026-04-22 22:13 | 34.70079 | -78.44016 | 26910 ft | 453 kts | 32° |
| 2026-04-22 22:13 | 34.72648 | -78.41773 | 27269 ft | 454 kts | 32° |
| 2026-04-22 22:13 | 34.75223 | -78.39525 | 27624 ft | 456 kts | 32° |
| 2026-04-22 22:13 | 34.77806 | -78.37266 | 27968 ft | 458 kts | 32° |
| 2026-04-22 22:14 | 34.80403 | -78.34991 | 28321 ft | 460 kts | 32° |
| 2026-04-22 22:14 | 34.82971 | -78.32743 | 28646 ft | 462 kts | 32° |
| 2026-04-22 22:14 | 34.85578 | -78.30467 | 29051 ft | 461 kts | 32° |
| 2026-04-22 22:14 | 34.88181 | -78.28198 | 29518 ft | 459 kts | 32° |
| 2026-04-22 22:15 | 34.90777 | -78.25931 | 29989 ft | 458 kts | 32° |
| 2026-04-22 22:15 | 34.93359 | -78.23669 | 30403 ft | 456 kts | 32° |
| 2026-04-22 22:15 | 34.95936 | -78.21404 | 30785 ft | 455 kts | 32° |
| 2026-04-22 22:15 | 34.98500 | -78.19150 | 31160 ft | 454 kts | 32° |
| 2026-04-22 22:16 | 35.01059 | -78.16899 | 31553 ft | 453 kts | 32° |
| 2026-04-22 22:16 | 35.03609 | -78.14656 | 31933 ft | 452 kts | 32° |
| 2026-04-22 22:16 | 35.06158 | -78.12414 | 32316 ft | 451 kts | 32° |
| 2026-04-22 22:16 | 35.08700 | -78.10173 | 32704 ft | 450 kts | 32° |
| 2026-04-22 22:17 | 35.11235 | -78.07932 | 33093 ft | 449 kts | 32° |
| 2026-04-22 22:17 | 35.13764 | -78.05698 | 33481 ft | 448 kts | 32° |
| 2026-04-22 22:17 | 35.16280 | -78.03475 | 33879 ft | 446 kts | 31° |
| 2026-04-22 22:17 | 35.18799 | -78.01250 | 34226 ft | 445 kts | 31° |
| 2026-04-22 22:18 | 35.21311 | -77.99033 | 34528 ft | 445 kts | 31° |
| 2026-04-22 22:18 | 35.23789 | -77.96844 | 34824 ft | 445 kts | 31° |
| 2026-04-22 22:18 | 35.26301 | -77.94621 | 35111 ft | 445 kts | 31° |
| 2026-04-22 22:18 | 35.28806 | -77.92401 | 35389 ft | 445 kts | 31° |
| 2026-04-22 22:19 | 35.31313 | -77.90175 | 35659 ft | 445 kts | 31° |
| 2026-04-22 22:19 | 35.33815 | -77.87949 | 35927 ft | 445 kts | 31° |
| 2026-04-22 22:19 | 35.36320 | -77.85718 | 36194 ft | 445 kts | 31° |
| 2026-04-22 22:19 | 35.38826 | -77.83487 | 36461 ft | 445 kts | 31° |
| 2026-04-22 22:20 | 35.41338 | -77.81252 | 36705 ft | 446 kts | 31° |
| 2026-04-22 22:20 | 35.43845 | -77.79020 | 36953 ft | 446 kts | 31° |
| 2026-04-22 22:20 | 35.45413 | -77.77624 | 37051 ft | 447 kts | 31° |
| 2026-04-22 22:21 | 35.48973 | -77.74453 | 37089 ft | 445 kts | 31° |
| 2026-04-22 22:21 | 35.53981 | -77.69973 | 37086 ft | 445 kts | 31° |
| 2026-04-22 22:22 | 35.58982 | -77.65485 | 37077 ft | 445 kts | 31° |
| 2026-04-22 22:22 | 35.63980 | -77.61005 | 37072 ft | 444 kts | 31° |
| 2026-04-22 22:23 | 35.68975 | -77.56533 | 37069 ft | 444 kts | 31° |
| 2026-04-22 22:23 | 35.73967 | -77.52049 | 37074 ft | 444 kts | 31° |
| 2026-04-22 22:24 | 35.78926 | -77.47579 | 37076 ft | 444 kts | 31° |
| 2026-04-22 22:24 | 35.83918 | -77.43082 | 37081 ft | 444 kts | 31° |
| 2026-04-22 22:25 | 35.88906 | -77.38578 | 37083 ft | 444 kts | 31° |
| 2026-04-22 22:25 | 35.93887 | -77.34065 | 37095 ft | 444 kts | 31° |
| 2026-04-22 22:26 | 35.98867 | -77.29550 | 37095 ft | 444 kts | 31° |
| 2026-04-22 22:26 | 36.03858 | -77.25030 | 37098 ft | 444 kts | 31° |
| 2026-04-22 22:27 | 36.08828 | -77.20505 | 37093 ft | 444 kts | 31° |
| 2026-04-22 22:27 | 36.13769 | -77.15994 | 37079 ft | 443 kts | 31° |
| 2026-04-22 22:28 | 36.18733 | -77.11467 | 37092 ft | 443 kts | 31° |
| 2026-04-22 22:28 | 36.23695 | -77.06938 | 37085 ft | 443 kts | 31° |
| 2026-04-22 22:29 | 36.28657 | -77.02401 | 37088 ft | 442 kts | 31° |
| 2026-04-22 22:29 | 36.33608 | -76.97866 | 37081 ft | 442 kts | 31° |
| 2026-04-22 22:30 | 36.38556 | -76.93326 | 37092 ft | 443 kts | 31° |
| 2026-04-22 22:30 | 36.43475 | -76.88803 | 37079 ft | 443 kts | 31° |
| 2026-04-22 22:31 | 36.48425 | -76.84245 | 37079 ft | 443 kts | 31° |
| 2026-04-22 22:31 | 36.53375 | -76.79675 | 37088 ft | 443 kts | 31° |
| 2026-04-22 22:32 | 36.58316 | -76.75103 | 37085 ft | 443 kts | 31° |
| 2026-04-22 22:32 | 36.63263 | -76.70531 | 37086 ft | 443 kts | 31° |
| 2026-04-22 22:33 | 36.68185 | -76.65979 | 37086 ft | 443 kts | 31° |
| 2026-04-22 22:33 | 36.73127 | -76.61383 | 37082 ft | 443 kts | 31° |
| 2026-04-22 22:34 | 36.78065 | -76.56779 | 37082 ft | 443 kts | 31° |
| 2026-04-22 22:34 | 36.83016 | -76.52174 | 37084 ft | 443 kts | 31° |
| 2026-04-22 22:35 | 36.87959 | -76.47571 | 37084 ft | 443 kts | 31° |
| 2026-04-22 22:35 | 36.92870 | -76.42981 | 37084 ft | 444 kts | 31° |
| 2026-04-22 22:36 | 36.97808 | -76.38354 | 37090 ft | 444 kts | 31° |
| 2026-04-22 22:36 | 37.02755 | -76.33709 | 37069 ft | 444 kts | 32° |
| 2026-04-22 22:37 | 37.07697 | -76.29065 | 37062 ft | 444 kts | 31° |
| 2026-04-22 22:37 | 37.12641 | -76.24414 | 37068 ft | 444 kts | 32° |
| 2026-04-22 22:38 | 37.17576 | -76.19757 | 37078 ft | 444 kts | 32° |
| 2026-04-22 22:38 | 37.22514 | -76.15099 | 37081 ft | 443 kts | 31° |
| 2026-04-22 22:39 | 37.27443 | -76.10443 | 37087 ft | 443 kts | 31° |
| 2026-04-22 22:39 | 37.32336 | -76.05804 | 37091 ft | 443 kts | 31° |
| 2026-04-22 22:40 | 37.37252 | -76.01137 | 37087 ft | 443 kts | 31° |
| 2026-04-22 22:40 | 37.42170 | -75.96471 | 37087 ft | 443 kts | 31° |
| 2026-04-22 22:41 | 37.47079 | -75.91806 | 37086 ft | 442 kts | 31° |
| 2026-04-22 22:41 | 37.51988 | -75.87123 | 37086 ft | 442 kts | 31° |
| 2026-04-22 22:42 | 37.57129 | -75.82997 | 37085 ft | 437 kts | 25° |
| 2026-04-22 22:42 | 37.62369 | -75.79084 | 37080 ft | 436 kts | 25° |
| 2026-04-22 22:43 | 37.67553 | -75.75184 | 37078 ft | 436 kts | 25° |
| 2026-04-22 22:43 | 37.72766 | -75.71260 | 37080 ft | 436 kts | 25° |
| 2026-04-22 22:44 | 37.77985 | -75.67343 | 37079 ft | 436 kts | 25° |
| 2026-04-22 22:44 | 37.83196 | -75.63421 | 37078 ft | 435 kts | 25° |
| 2026-04-22 22:45 | 37.88323 | -75.59294 | 37079 ft | 438 kts | 28° |
| 2026-04-22 22:45 | 37.93292 | -75.54875 | 37078 ft | 439 kts | 29° |
| 2026-04-22 22:46 | 37.98278 | -75.50396 | 37081 ft | 439 kts | 28° |
| 2026-04-22 22:46 | 38.02470 | -75.46700 | 37081 ft | 438 kts | 28° |
| 2026-04-22 22:47 | 38.04253 | -75.45163 | 37077 ft | 437 kts | 27° |
| 2026-04-22 22:47 | 38.09328 | -75.40905 | 37072 ft | 436 kts | 26° |
| 2026-04-22 22:48 | 38.14453 | -75.36769 | 37071 ft | 436 kts | 26° |
| 2026-04-22 22:48 | 38.19570 | -75.32641 | 37071 ft | 436 kts | 26° |
| 2026-04-22 22:49 | 38.24666 | -75.28558 | 37077 ft | 432 kts | 21° |
| 2026-04-22 22:49 | 38.30164 | -75.25680 | 37069 ft | 426 kts | 14° |
| 2026-04-22 22:49 | 38.32944 | -75.24344 | 36951 ft | 431 kts | 15° |
| 2026-04-22 22:50 | 38.35790 | -75.22979 | 36666 ft | 440 kts | 15° |
| 2026-04-22 22:50 | 38.38658 | -75.21596 | 36199 ft | 441 kts | 15° |
| 2026-04-22 22:50 | 38.41537 | -75.20199 | 35850 ft | 443 kts | 15° |
| 2026-04-22 22:50 | 38.44424 | -75.18793 | 35555 ft | 445 kts | 15° |
| 2026-04-22 22:51 | 38.47318 | -75.17380 | 35238 ft | 442 kts | 15° |
| 2026-04-22 22:51 | 38.50179 | -75.15985 | 34950 ft | 438 kts | 15° |
| 2026-04-22 22:51 | 38.53019 | -75.14604 | 34674 ft | 439 kts | 15° |
| 2026-04-22 22:51 | 38.55862 | -75.13221 | 34372 ft | 435 kts | 15° |
| 2026-04-22 22:52 | 38.58675 | -75.11846 | 34093 ft | 432 kts | 15° |
| 2026-04-22 22:52 | 38.61445 | -75.10494 | 33774 ft | 429 kts | 15° |
| 2026-04-22 22:52 | 38.64181 | -75.08946 | 33450 ft | 433 kts | 23° |
| 2026-04-22 22:52 | 38.66686 | -75.06755 | 33129 ft | 440 kts | 34° |
| 2026-04-22 22:53 | 38.68967 | -75.04137 | 32819 ft | 440 kts | 36° |
| 2026-04-22 22:53 | 38.71228 | -75.01520 | 32500 ft | 437 kts | 35° |
| 2026-04-22 22:53 | 38.73486 | -74.98909 | 32206 ft | 435 kts | 35° |
| 2026-04-22 22:53 | 38.75734 | -74.96317 | 31899 ft | 433 kts | 35° |
| 2026-04-22 22:54 | 38.77967 | -74.93742 | 31595 ft | 431 kts | 35° |
| 2026-04-22 22:54 | 38.80232 | -74.91205 | 31303 ft | 434 kts | 33° |
| 2026-04-22 22:54 | 38.82532 | -74.88772 | 31011 ft | 434 kts | 32° |
| 2026-04-22 22:54 | 38.84891 | -74.86362 | 30687 ft | 432 kts | 31° |
| 2026-04-22 22:55 | 38.87256 | -74.83979 | 30360 ft | 435 kts | 31° |
| 2026-04-22 22:55 | 38.89687 | -74.81538 | 29993 ft | 447 kts | 32° |
| 2026-04-22 22:55 | 38.93712 | -74.77411 | 29341 ft | 439 kts | 32° |
| 2026-04-22 22:56 | 38.96074 | -74.74942 | 28956 ft | 436 kts | 32° |
| 2026-04-22 22:56 | 38.98386 | -74.72512 | 28582 ft | 433 kts | 33° |
| 2026-04-22 22:56 | 39.00709 | -74.70062 | 28208 ft | 431 kts | 33° |
| 2026-04-22 22:56 | 39.03021 | -74.67629 | 27835 ft | 428 kts | 32° |
| 2026-04-22 22:57 | 39.05365 | -74.65169 | 27473 ft | 444 kts | 33° |
| 2026-04-22 22:57 | 39.07808 | -74.62621 | 27109 ft | 457 kts | 33° |
| 2026-04-22 22:57 | 39.10283 | -74.60023 | 26754 ft | 460 kts | 33° |
| 2026-04-22 22:57 | 39.12759 | -74.57407 | 26397 ft | 458 kts | 33° |
| 2026-04-22 22:58 | 39.15215 | -74.54796 | 26053 ft | 456 kts | 33° |
| 2026-04-22 22:58 | 39.17642 | -74.52174 | 25707 ft | 454 kts | 34° |
| 2026-04-22 22:58 | 39.20054 | -74.49535 | 25366 ft | 453 kts | 34° |
| 2026-04-22 22:58 | 39.22447 | -74.46900 | 25034 ft | 451 kts | 34° |
| 2026-04-22 22:59 | 39.24828 | -74.44276 | 24706 ft | 448 kts | 34° |
| 2026-04-22 22:59 | 39.27168 | -74.41700 | 24378 ft | 446 kts | 34° |
| 2026-04-22 22:59 | 39.29558 | -74.39080 | 24025 ft | 444 kts | 34° |
| 2026-04-22 22:59 | 39.31878 | -74.36541 | 23674 ft | 442 kts | 34° |
| 2026-04-22 23:00 | 39.34214 | -74.33978 | 23278 ft | 439 kts | 34° |
| 2026-04-22 23:00 | 39.36533 | -74.31429 | 22867 ft | 437 kts | 34° |
| 2026-04-22 23:00 | 39.38839 | -74.28886 | 22463 ft | 434 kts | 34° |
| 2026-04-22 23:00 | 39.41127 | -74.26354 | 22067 ft | 431 kts | 34° |
| 2026-04-22 23:01 | 39.43398 | -74.23839 | 21656 ft | 428 kts | 34° |
| 2026-04-22 23:01 | 39.45659 | -74.21336 | 21157 ft | 425 kts | 34° |
| 2026-04-22 23:01 | 39.47903 | -74.18848 | 20522 ft | 420 kts | 34° |
| 2026-04-22 23:01 | 39.50066 | -74.16431 | 20437 ft | 402 kts | 34° |
| 2026-04-22 23:02 | 39.52114 | -74.14067 | 20342 ft | 390 kts | 38° |
| 2026-04-22 23:02 | 39.53974 | -74.11374 | 20146 ft | 413 kts | 43° |
| 2026-04-22 23:02 | 39.55844 | -74.08481 | 19909 ft | 421 kts | 44° |
| 2026-04-22 23:02 | 39.57720 | -74.05553 | 19672 ft | 422 kts | 44° |
| 2026-04-22 23:03 | 39.59583 | -74.02621 | 19428 ft | 421 kts | 44° |
| 2026-04-22 23:03 | 39.61438 | -73.99692 | 19181 ft | 420 kts | 44° |
| 2026-04-22 23:03 | 39.63291 | -73.96768 | 18952 ft | 418 kts | 44° |
| 2026-04-22 23:03 | 39.65136 | -73.93858 | 18721 ft | 417 kts | 44° |
| 2026-04-22 23:04 | 39.66980 | -73.90952 | 18522 ft | 416 kts | 44° |
| 2026-04-22 23:04 | 39.68816 | -73.88060 | 18186 ft | 414 kts | 44° |
| 2026-04-22 23:04 | 39.70617 | -73.85221 | 17777 ft | 411 kts | 44° |
| 2026-04-22 23:04 | 39.72430 | -73.82362 | 17490 ft | 410 kts | 44° |
| 2026-04-22 23:05 | 39.74239 | -73.79514 | 17173 ft | 408 kts | 44° |
| 2026-04-22 23:05 | 39.76040 | -73.76676 | 16863 ft | 406 kts | 44° |
| 2026-04-22 23:05 | 39.77830 | -73.73851 | 16554 ft | 404 kts | 44° |
| 2026-04-22 23:05 | 39.79606 | -73.71036 | 16254 ft | 402 kts | 44° |
| 2026-04-22 23:06 | 39.81376 | -73.68230 | 15941 ft | 400 kts | 44° |
| 2026-04-22 23:06 | 39.83137 | -73.65438 | 15641 ft | 398 kts | 44° |
| 2026-04-22 23:06 | 39.84894 | -73.62650 | 15330 ft | 397 kts | 44° |
| 2026-04-22 23:06 | 39.86638 | -73.59877 | 15032 ft | 395 kts | 44° |
| 2026-04-22 23:07 | 39.88379 | -73.57108 | 14734 ft | 394 kts | 44° |
| 2026-04-22 23:07 | 39.90129 | -73.54381 | 14434 ft | 389 kts | 40° |
| 2026-04-22 23:07 | 39.92056 | -73.52007 | 14144 ft | 384 kts | 36° |
| 2026-04-22 23:07 | 39.94035 | -73.49675 | 13851 ft | 383 kts | 36° |
| 2026-04-22 23:08 | 39.96004 | -73.47355 | 13535 ft | 381 kts | 36° |
| 2026-04-22 23:08 | 39.97964 | -73.45042 | 13242 ft | 379 kts | 36° |
| 2026-04-22 23:08 | 39.99919 | -73.42732 | 12965 ft | 378 kts | 36° |
| 2026-04-22 23:08 | 40.01866 | -73.40427 | 12678 ft | 376 kts | 36° |
| 2026-04-22 23:09 | 40.03797 | -73.38139 | 12390 ft | 375 kts | 36° |
| 2026-04-22 23:09 | 40.05721 | -73.35854 | 12099 ft | 373 kts | 36° |
| 2026-04-22 23:09 | 40.07636 | -73.33577 | 11817 ft | 371 kts | 36° |
| 2026-04-22 23:09 | 40.09540 | -73.31313 | 11539 ft | 370 kts | 36° |
| 2026-04-22 23:10 | 40.11439 | -73.29050 | 11262 ft | 368 kts | 36° |
| 2026-04-22 23:10 | 40.13318 | -73.26813 | 11004 ft | 360 kts | 36° |
| 2026-04-22 23:10 | 40.15121 | -73.24657 | 10880 ft | 344 kts | 36° |
| 2026-04-22 23:10 | 40.16840 | -73.22594 | 10746 ft | 323 kts | 35° |
| 2026-04-22 23:11 | 40.18417 | -73.20687 | 10515 ft | 296 kts | 35° |
| 2026-04-22 23:11 | 40.19880 | -73.18925 | 9967 ft | 285 kts | 34° |
| 2026-04-22 23:11 | 40.21331 | -73.17194 | 9803 ft | 282 kts | 34° |
| 2026-04-22 23:11 | 40.22786 | -73.15469 | 9683 ft | 282 kts | 34° |
| 2026-04-22 23:12 | 40.24239 | -73.13738 | 9542 ft | 282 kts | 35° |
| 2026-04-22 23:12 | 40.25686 | -73.12016 | 9409 ft | 280 kts | 35° |
| 2026-04-22 23:12 | 40.27127 | -73.10302 | 9277 ft | 280 kts | 35° |
| 2026-04-22 23:12 | 40.28572 | -73.08580 | 9146 ft | 280 kts | 35° |
| 2026-04-22 23:13 | 40.30010 | -73.06860 | 9015 ft | 280 kts | 36° |
| 2026-04-22 23:13 | 40.31446 | -73.05139 | 8887 ft | 279 kts | 36° |
| 2026-04-22 23:13 | 40.32875 | -73.03422 | 8757 ft | 279 kts | 36° |
| 2026-04-22 23:13 | 40.34285 | -73.01728 | 8629 ft | 278 kts | 36° |
| 2026-04-22 23:14 | 40.35713 | -73.00010 | 8515 ft | 278 kts | 36° |
| 2026-04-22 23:14 | 40.37137 | -72.98297 | 8321 ft | 278 kts | 36° |
| 2026-04-22 23:14 | 40.38556 | -72.96591 | 8115 ft | 276 kts | 36° |
| 2026-04-22 23:14 | 40.39973 | -72.94888 | 7906 ft | 276 kts | 37° |
| 2026-04-22 23:15 | 40.41382 | -72.93188 | 7714 ft | 275 kts | 37° |
| 2026-04-22 23:15 | 40.42788 | -72.91492 | 7499 ft | 274 kts | 37° |
| 2026-04-22 23:15 | 40.44194 | -72.89801 | 7302 ft | 273 kts | 37° |
| 2026-04-22 23:15 | 40.45593 | -72.88117 | 7096 ft | 273 kts | 37° |
| 2026-04-22 23:16 | 40.46990 | -72.86431 | 6876 ft | 272 kts | 38° |
| 2026-04-22 23:16 | 40.48382 | -72.84750 | 6686 ft | 271 kts | 38° |
| 2026-04-22 23:16 | 40.49768 | -72.83079 | 6487 ft | 270 kts | 38° |
| 2026-04-22 23:16 | 40.51165 | -72.81441 | 6264 ft | 268 kts | 32° |
| 2026-04-22 23:17 | 40.52771 | -72.80308 | 6065 ft | 261 kts | 15° |
| 2026-04-22 23:17 | 40.54537 | -72.79880 | 5859 ft | 255 kts | 358° |
| 2026-04-22 23:17 | 40.56240 | -72.80006 | 5672 ft | 242 kts | 342° |
| 2026-04-22 23:17 | 40.57584 | -72.81147 | 5475 ft | 228 kts | 305° |
| 2026-04-22 23:18 | 40.58125 | -72.83047 | 5317 ft | 223 kts | 281° |
| 2026-04-22 23:18 | 40.58497 | -72.85018 | 5143 ft | 222 kts | 288° |
| 2026-04-22 23:18 | 40.59005 | -72.86929 | 5005 ft | 221 kts | 290° |
| 2026-04-22 23:18 | 40.59542 | -72.88830 | 4812 ft | 221 kts | 290° |
| 2026-04-22 23:19 | 40.60073 | -72.90727 | 4622 ft | 221 kts | 290° |
| 2026-04-22 23:19 | 40.60592 | -72.92629 | 4450 ft | 221 kts | 289° |
| 2026-04-22 23:19 | 40.61102 | -72.94537 | 4281 ft | 220 kts | 289° |
| 2026-04-22 23:19 | 40.61598 | -72.96420 | 3986 ft | 220 kts | 289° |
| 2026-04-22 23:20 | 40.62093 | -72.98322 | 3737 ft | 219 kts | 289° |
| 2026-04-22 23:20 | 40.62575 | -73.00191 | 3472 ft | 212 kts | 288° |
| 2026-04-22 23:20 | 40.63038 | -73.01998 | 3214 ft | 205 kts | 288° |
| 2026-04-22 23:20 | 40.63484 | -73.03747 | 2980 ft | 199 kts | 288° |
| 2026-04-22 23:21 | 40.63921 | -73.05471 | 2717 ft | 198 kts | 287° |
| 2026-04-22 23:21 | 40.64359 | -73.07198 | 2449 ft | 199 kts | 287° |
| 2026-04-22 23:21 | 40.64798 | -73.08929 | 2186 ft | 200 kts | 287° |
| 2026-04-22 23:21 | 40.65234 | -73.10646 | 2018 ft | 194 kts | 287° |
| 2026-04-22 23:22 | 40.65654 | -73.12301 | 1999 ft | 188 kts | 287° |
| 2026-04-22 23:22 | 40.66062 | -73.13908 | 2000 ft | 186 kts | 286° |
| 2026-04-22 23:22 | 40.66471 | -73.15522 | 1998 ft | 185 kts | 286° |
| 2026-04-22 23:22 | 40.66878 | -73.17134 | 2004 ft | 185 kts | 286° |
| 2026-04-22 23:23 | 40.67284 | -73.18738 | 2000 ft | 181 kts | 287° |
| 2026-04-22 23:23 | 40.67775 | -73.20195 | 2002 ft | 172 kts | 303° |
| 2026-04-22 23:23 | 40.68649 | -73.21214 | 1996 ft | 165 kts | 330° |
| 2026-04-22 23:23 | 40.69731 | -73.21619 | 2001 ft | 161 kts | 355° |
| 2026-04-22 23:24 | 40.70790 | -73.21405 | 1999 ft | 152 kts | 21° |
| 2026-04-22 23:24 | 40.71675 | -73.20683 | 1936 ft | 149 kts | 45° |
| 2026-04-22 23:24 | 40.72406 | -73.19728 | 1788 ft | 147 kts | 48° |
| 2026-04-22 23:24 | 40.73132 | -73.18774 | 1609 ft | 147 kts | 46° |
| 2026-04-22 23:25 | 40.73845 | -73.17837 | 1408 ft | 147 kts | 47° |
| 2026-04-22 23:25 | 40.74568 | -73.16890 | 1206 ft | 146 kts | 48° |
| 2026-04-22 23:25 | 40.75289 | -73.15943 | 996 ft | 145 kts | 47° |
| 2026-04-22 23:25 | 40.75999 | -73.15007 | 843 ft | 144 kts | 49° |
| 2026-04-22 23:26 | 40.76651 | -73.14129 | 670 ft | 141 kts | 49° |
| 2026-04-22 23:26 | 40.77335 | -73.13227 | 515 ft | 138 kts | 47° |
| 2026-04-22 23:26 | 40.78026 | -73.12353 | 358 ft | 137 kts | 47° |
| 2026-04-22 23:26 | 40.78695 | -73.11474 | 177 ft | 135 kts | 47° |
| 2026-04-22 23:27 | 40.79339 | -73.10635 | 101 ft | 120 kts | 48° |
| 2026-04-22 23:27 | 40.79792 | -73.10023 | 101 ft | 53 kts | 45° |
| 2026-04-22 23:27 | 40.79940 | -73.09827 | 100 ft | 27 kts | 45° |
| 2026-04-22 23:27 | 40.80088 | -73.09629 | 99 ft | 30 kts | 46° |
| 2026-04-22 23:28 | 40.80166 | -73.09515 | 101 ft | 5 kts | 66° |
| 2026-04-22 23:28 | 40.80143 | -73.09479 | 99 ft | 7 kts | 158° |
| 2026-04-22 23:28 | 40.80105 | -73.09472 | 97 ft | 0 kts | 176° |
| 2026-04-22 23:29 | 40.80077 | -73.09471 | 99 ft | 11 kts | 179° |
| 2026-04-22 23:29 | 40.79983 | -73.09471 | 97 ft | 14 kts | 180° |
| 2026-04-22 23:30 | 40.79886 | -73.09471 | 95 ft | 14 kts | 180° |
| 2026-04-22 23:30 | 40.79751 | -73.09470 | 96 ft | 25 kts | 179° |
| 2026-04-22 23:30 | 40.79577 | -73.09470 | 96 ft | 25 kts | 180° |
| 2026-04-22 23:30 | 40.79400 | -73.09470 | 96 ft | 26 kts | 180° |
| 2026-04-22 23:31 | 40.79259 | -73.09459 | 96 ft | 17 kts | 165° |
| 2026-04-22 23:31 | 40.79170 | -73.09492 | 95 ft | 9 kts | 220° |
| 2026-04-22 23:31 | 40.79116 | -73.09556 | 95 ft | 14 kts | 225° |
| 2026-04-22 23:31 | 40.79048 | -73.09619 | 97 ft | 7 kts | 186° |
| 2026-04-22 23:32 | 40.79042 | -73.09619 | 95 ft | 0 kts | 182° |